createdAt,value
2018-11-04T00:00:59.789Z,1011.17
2018-11-04T00:01:59.768Z,1011.14
2018-11-04T00:02:59.753Z,1011.17
2018-11-04T00:03:59.741Z,1011.13
2018-11-04T00:04:59.740Z,1011.21
2018-11-04T00:05:59.731Z,1011.15
2018-11-04T00:06:59.708Z,1011.18
2018-11-04T00:07:59.727Z,1011.14
2018-11-04T00:08:59.696Z,1011.17
2018-11-04T00:09:59.697Z,1011.14
2018-11-04T00:10:59.697Z,1011.13
2018-11-04T00:11:59.653Z,1011.19
2018-11-04T00:12:59.692Z,1011.10
2018-11-04T00:13:59.633Z,1011.12
2018-11-04T00:14:59.704Z,1011.13
2018-11-04T00:15:59.635Z,1011.10
2018-11-04T00:16:59.595Z,1011.10
2018-11-04T00:17:59.590Z,1011.06
2018-11-04T00:18:59.576Z,1011.07
2018-11-04T00:19:59.561Z,1011.00
2018-11-04T00:20:59.612Z,1010.93
2018-11-04T00:21:59.547Z,1010.96
2018-11-04T00:22:59.528Z,1010.92
2018-11-04T00:23:59.661Z,1010.92
2018-11-04T00:24:59.531Z,1010.92
2018-11-04T00:25:59.495Z,1010.78
2018-11-04T00:26:59.485Z,1010.76
2018-11-04T00:27:59.503Z,1010.82
2018-11-04T00:28:59.472Z,1010.83
2018-11-04T00:29:59.545Z,1010.79
2018-11-04T00:30:59.447Z,1010.81
2018-11-04T00:31:59.440Z,1010.86
2018-11-04T00:32:59.427Z,1010.85
2018-11-04T00:33:59.412Z,1010.92
2018-11-04T00:34:59.451Z,1010.84
2018-11-04T00:35:59.390Z,1010.87
2018-11-04T00:36:59.384Z,1010.80
2018-11-04T00:37:59.366Z,1010.83
2018-11-04T00:38:59.375Z,1010.81
2018-11-04T00:39:59.347Z,1010.79
2018-11-04T00:40:59.358Z,1010.82
2018-11-04T00:41:59.335Z,1010.84
2018-11-04T00:42:59.321Z,1010.79
2018-11-04T00:43:59.331Z,1010.77
2018-11-04T00:44:59.301Z,1010.77
2018-11-04T00:45:59.320Z,1010.79
2018-11-04T00:46:59.273Z,1010.78
2018-11-04T00:47:59.265Z,1010.72
2018-11-04T00:48:59.258Z,1010.75
2018-11-04T00:49:59.240Z,1010.76
2018-11-04T00:50:59.243Z,1010.67
2018-11-04T00:51:59.221Z,1010.66
2018-11-04T00:52:59.205Z,1010.72
2018-11-04T00:53:59.202Z,1010.79
2018-11-04T00:54:59.185Z,1010.73
2018-11-04T00:55:59.208Z,1010.71
2018-11-04T00:56:59.207Z,1010.73
2018-11-04T00:57:59.150Z,1010.73
2018-11-04T00:58:59.135Z,1010.71
2018-11-04T00:59:59.136Z,1010.74
2018-11-04T01:00:59.146Z,1010.71
2018-11-04T01:01:59.107Z,1010.77
2018-11-04T01:02:59.110Z,1010.68
2018-11-04T01:03:59.093Z,1010.66
2018-11-04T01:04:59.094Z,1010.60
2018-11-04T01:05:59.105Z,1010.63
2018-11-04T01:06:59.048Z,1010.59
2018-11-04T01:07:59.091Z,1010.56
2018-11-04T01:08:59.060Z,1010.62
2018-11-04T01:09:59.012Z,1010.57
2018-11-04T01:10:59.027Z,1010.57
2018-11-04T01:11:59.045Z,1010.52
2018-11-04T01:12:58.982Z,1010.53
2018-11-04T01:13:58.984Z,1010.49
2018-11-04T01:14:58.963Z,1010.50
2018-11-04T01:15:58.983Z,1010.50
2018-11-04T01:16:58.960Z,1010.41
2018-11-04T01:17:58.942Z,1010.39
2018-11-04T01:18:58.919Z,1010.44
2018-11-04T01:19:58.909Z,1010.38
2018-11-04T01:20:58.990Z,1010.39
2018-11-04T01:21:58.915Z,1010.37
2018-11-04T01:22:58.878Z,1010.39
2018-11-04T01:23:58.860Z,1010.36
2018-11-04T01:24:58.855Z,1010.36
2018-11-04T01:25:58.841Z,1010.42
2018-11-04T01:26:58.852Z,1010.40
2018-11-04T01:27:58.839Z,1010.37
2018-11-04T01:28:58.810Z,1010.37
2018-11-04T01:29:58.794Z,1010.40
2018-11-04T01:30:58.786Z,1010.37
2018-11-04T01:31:58.796Z,1010.33
2018-11-04T01:32:58.765Z,1010.37
2018-11-04T01:33:58.756Z,1010.29
2018-11-04T01:34:58.744Z,1010.26
2018-11-04T01:35:58.750Z,1010.27
2018-11-04T01:36:58.776Z,1010.29
2018-11-04T01:37:58.720Z,1010.24
2018-11-04T01:38:58.698Z,1010.25
2018-11-04T01:39:58.688Z,1010.23
2018-11-04T01:40:58.690Z,1010.16
2018-11-04T01:41:58.669Z,1010.20
2018-11-04T01:42:58.678Z,1010.14
2018-11-04T01:43:58.642Z,1010.16
2018-11-04T01:44:58.628Z,1010.09
2018-11-04T01:45:58.655Z,1010.11
2018-11-04T01:46:58.621Z,1010.07
2018-11-04T01:47:58.641Z,1010.03
2018-11-04T01:48:58.584Z,1010.02
2018-11-04T01:49:58.591Z,1010.03
2018-11-04T01:50:58.566Z,1010.00
2018-11-04T01:51:58.553Z,1009.95
2018-11-04T01:52:58.559Z,1009.91
2018-11-04T01:53:58.531Z,1009.91
2018-11-04T01:54:58.533Z,1009.94
2018-11-04T01:55:58.534Z,1009.96
2018-11-04T01:56:58.499Z,1009.91
2018-11-04T01:57:58.510Z,1009.92
2018-11-04T01:58:58.495Z,1009.93
2018-11-04T01:59:58.468Z,1009.84
2018-11-04T02:00:58.456Z,1009.87
2018-11-04T02:01:58.489Z,1009.85
2018-11-04T02:02:58.461Z,1009.93
2018-11-04T02:03:58.426Z,1009.88
2018-11-04T02:04:58.446Z,1009.88
2018-11-04T02:05:58.404Z,1009.90
2018-11-04T02:06:58.392Z,1009.89
2018-11-04T02:07:58.404Z,1009.82
2018-11-04T02:08:58.379Z,1009.89
2018-11-04T02:09:58.398Z,1009.87
2018-11-04T02:10:58.355Z,1009.85
2018-11-04T02:11:58.339Z,1009.80
2018-11-04T02:12:58.348Z,1009.81
2018-11-04T02:13:58.320Z,1009.79
2018-11-04T02:14:58.303Z,1009.76
2018-11-04T02:15:58.319Z,1009.76
2018-11-04T02:16:58.292Z,1009.73
2018-11-04T02:17:58.294Z,1009.71
2018-11-04T02:18:58.261Z,1009.77
2018-11-04T02:19:58.263Z,1009.77
2018-11-04T02:20:58.259Z,1009.69
2018-11-04T02:21:58.263Z,1009.66
2018-11-04T02:22:58.249Z,1009.66
2018-11-04T02:23:58.212Z,1009.61
2018-11-04T02:24:58.203Z,1009.67
2018-11-04T02:25:58.188Z,1009.56
2018-11-04T02:26:58.178Z,1009.57
2018-11-04T02:27:58.187Z,1009.63
2018-11-04T02:28:58.155Z,1009.57
2018-11-04T02:29:58.149Z,1009.57
2018-11-04T02:30:58.135Z,1009.63
2018-11-04T02:31:58.125Z,1009.57
2018-11-04T02:32:58.134Z,1009.60
2018-11-04T02:33:58.097Z,1009.62
2018-11-04T02:34:58.090Z,1009.58
2018-11-04T02:35:58.088Z,1009.58
2018-11-04T02:36:58.074Z,1009.62
2018-11-04T02:37:58.086Z,1009.61
2018-11-04T02:38:58.049Z,1009.53
2018-11-04T02:39:58.031Z,1009.57
2018-11-04T02:40:58.020Z,1009.52
2018-11-04T02:41:58.010Z,1009.52
2018-11-04T02:42:58.018Z,1009.47
2018-11-04T02:43:58.004Z,1009.46
2018-11-04T02:44:58.000Z,1009.42
2018-11-04T02:45:57.996Z,1009.39
2018-11-04T02:46:58.047Z,1009.40
2018-11-04T02:47:57.948Z,1009.35
2018-11-04T02:48:57.955Z,1009.32
2018-11-04T02:49:57.917Z,1009.38
2018-11-04T02:50:57.924Z,1009.31
2018-11-04T02:51:57.904Z,1009.29
2018-11-04T02:52:57.892Z,1009.29
2018-11-04T02:53:57.902Z,1009.36
2018-11-04T02:54:57.911Z,1009.30
2018-11-04T02:55:57.860Z,1009.31
2018-11-04T02:56:57.843Z,1009.28
2018-11-04T02:57:57.865Z,1009.26
2018-11-04T02:58:57.868Z,1009.23
2018-11-04T02:59:57.824Z,1009.21
2018-11-04T03:00:57.829Z,1009.16
2018-11-04T03:01:57.863Z,1009.20
2018-11-04T03:02:57.786Z,1009.19
2018-11-04T03:03:57.791Z,1009.22
2018-11-04T03:04:57.759Z,1009.15
2018-11-04T03:05:57.753Z,1009.17
2018-11-04T03:06:57.740Z,1009.15
2018-11-04T03:07:57.723Z,1009.13
2018-11-04T03:08:57.757Z,1009.15
2018-11-04T03:09:57.697Z,1009.16
2018-11-04T03:10:57.689Z,1009.17
2018-11-04T03:11:57.704Z,1009.17
2018-11-04T03:12:57.678Z,1009.16
2018-11-04T03:13:57.717Z,1009.14
2018-11-04T03:14:57.652Z,1009.18
2018-11-04T03:15:57.634Z,1009.11
2018-11-04T03:16:57.621Z,1009.16
2018-11-04T03:17:57.610Z,1009.14
2018-11-04T03:18:57.652Z,1009.14
2018-11-04T03:19:57.607Z,1009.12
2018-11-04T03:20:57.589Z,1009.06
2018-11-04T03:21:57.566Z,1009.05
2018-11-04T03:22:57.561Z,1009.09
2018-11-04T03:23:57.566Z,1009.08
2018-11-04T03:24:57.561Z,1009.10
2018-11-04T03:25:57.579Z,1009.13
2018-11-04T03:26:57.530Z,1009.10
2018-11-04T03:27:57.502Z,1009.06
2018-11-04T03:28:57.505Z,1009.08
2018-11-04T03:29:57.507Z,1009.05
2018-11-04T03:30:57.478Z,1009.01
2018-11-04T03:31:57.479Z,1008.98
2018-11-04T03:32:57.495Z,1009.00
2018-11-04T03:33:57.442Z,1008.99
2018-11-04T03:34:57.722Z,1008.95
2018-11-04T03:35:57.437Z,1008.92
2018-11-04T03:36:57.409Z,1008.94
2018-11-04T03:37:57.405Z,1008.94
2018-11-04T03:38:57.422Z,1008.93
2018-11-04T03:39:57.406Z,1008.89
2018-11-04T03:40:57.378Z,1008.92
2018-11-04T03:41:57.370Z,1008.96
2018-11-04T03:42:57.344Z,1008.93
2018-11-04T03:43:57.356Z,1008.94
2018-11-04T03:44:57.349Z,1008.88
2018-11-04T03:45:57.311Z,1008.83
2018-11-04T03:46:57.297Z,1008.87
2018-11-04T03:47:57.285Z,1008.79
2018-11-04T03:48:57.284Z,1008.77
2018-11-04T03:49:57.299Z,1008.75
2018-11-04T03:50:57.269Z,1008.77
2018-11-04T03:51:57.244Z,1008.74
2018-11-04T03:52:57.241Z,1008.74
2018-11-04T03:53:57.234Z,1008.71
2018-11-04T03:54:57.225Z,1008.77
2018-11-04T03:55:57.196Z,1008.81
2018-11-04T03:56:57.193Z,1008.77
2018-11-04T03:57:57.172Z,1008.78
2018-11-04T03:58:57.198Z,1008.78
2018-11-04T03:59:57.180Z,1008.77
2018-11-04T04:00:57.138Z,1008.75
2018-11-04T04:01:57.132Z,1008.77
2018-11-04T04:02:57.141Z,1008.73
2018-11-04T04:03:57.110Z,1008.74
2018-11-04T04:04:57.153Z,1008.75
2018-11-04T04:05:57.089Z,1008.70
2018-11-04T04:06:57.071Z,1008.73
2018-11-04T04:07:57.066Z,1008.65
2018-11-04T04:08:57.083Z,1008.67
2018-11-04T04:09:57.063Z,1008.66
2018-11-04T04:10:57.059Z,1008.62
2018-11-04T04:11:57.032Z,1008.64
2018-11-04T04:12:57.007Z,1008.63
2018-11-04T04:13:56.995Z,1008.71
2018-11-04T04:14:56.998Z,1008.68
2018-11-04T04:15:56.998Z,1008.59
2018-11-04T04:16:56.974Z,1008.60
2018-11-04T04:17:56.967Z,1008.59
2018-11-04T04:18:56.952Z,1008.59
2018-11-04T04:19:56.940Z,1008.56
2018-11-04T04:20:56.945Z,1008.56
2018-11-04T04:21:56.914Z,1008.53
2018-11-04T04:22:56.914Z,1008.57
2018-11-04T04:23:56.893Z,1008.59
2018-11-04T04:24:56.889Z,1008.52
2018-11-04T04:25:56.895Z,1008.48
2018-11-04T04:26:56.861Z,1008.47
2018-11-04T04:27:56.893Z,1008.48
2018-11-04T04:28:56.860Z,1008.49
2018-11-04T04:29:56.826Z,1008.53
2018-11-04T04:30:56.844Z,1008.43
2018-11-04T04:31:56.801Z,1008.47
2018-11-04T04:32:56.789Z,1008.38
2018-11-04T04:33:56.798Z,1008.41
2018-11-04T04:34:56.764Z,1008.36
2018-11-04T04:35:56.770Z,1008.31
2018-11-04T04:36:56.753Z,1008.29
2018-11-04T04:37:56.751Z,1008.31
2018-11-04T04:38:56.723Z,1008.24
2018-11-04T04:39:56.716Z,1008.21
2018-11-04T04:40:56.732Z,1008.22
2018-11-04T04:41:56.687Z,1008.18
2018-11-04T04:42:56.692Z,1008.19
2018-11-04T04:43:56.673Z,1008.17
2018-11-04T04:44:56.665Z,1008.16
2018-11-04T04:45:56.661Z,1008.24
2018-11-04T04:46:56.639Z,1008.27
2018-11-04T04:47:56.637Z,1008.21
2018-11-04T04:48:56.613Z,1008.23
2018-11-04T04:49:56.603Z,1008.23
2018-11-04T04:50:56.620Z,1008.21
2018-11-04T04:51:56.579Z,1008.17
2018-11-04T04:52:56.570Z,1008.23
2018-11-04T04:53:56.559Z,1008.22
2018-11-04T04:54:56.544Z,1008.09
2018-11-04T04:55:56.547Z,1008.13
2018-11-04T04:56:56.555Z,1008.13
2018-11-04T04:57:56.519Z,1008.18
2018-11-04T04:58:56.499Z,1008.14
2018-11-04T04:59:56.490Z,1008.09
2018-11-04T05:00:56.485Z,1008.06
2018-11-04T05:01:56.492Z,1008.09
2018-11-04T05:02:56.455Z,1008.01
2018-11-04T05:03:56.453Z,1008.02
2018-11-04T05:04:56.442Z,1008.06
2018-11-04T05:05:56.423Z,1008.05
2018-11-04T05:06:56.430Z,1007.98
2018-11-04T05:07:56.404Z,1007.97
2018-11-04T05:08:56.425Z,1008.00
2018-11-04T05:09:56.393Z,1007.96
2018-11-04T05:10:56.369Z,1007.99
2018-11-04T05:11:56.406Z,1007.90
2018-11-04T05:12:56.346Z,1007.98
2018-11-04T05:13:56.339Z,1007.97
2018-11-04T05:14:56.332Z,1007.89
2018-11-04T05:15:56.312Z,1007.89
2018-11-04T05:16:56.326Z,1007.90
2018-11-04T05:17:56.326Z,1007.90
2018-11-04T05:18:56.285Z,1007.84
2018-11-04T05:19:56.276Z,1007.91
2018-11-04T05:20:56.262Z,1007.85
2018-11-04T05:21:56.289Z,1007.81
2018-11-04T05:22:56.241Z,1007.84
2018-11-04T05:23:56.228Z,1007.90
2018-11-04T05:24:56.228Z,1007.89
2018-11-04T05:25:56.219Z,1007.92
2018-11-04T05:26:56.219Z,1007.87
2018-11-04T05:27:56.220Z,1007.93
2018-11-04T05:28:56.176Z,1007.93
2018-11-04T05:29:56.170Z,1007.88
2018-11-04T05:30:56.153Z,1007.88
2018-11-04T05:31:56.198Z,1007.92
2018-11-04T05:32:56.137Z,1007.92
2018-11-04T05:33:56.123Z,1007.90
2018-11-04T05:34:56.110Z,1007.94
2018-11-04T05:35:56.098Z,1007.88
2018-11-04T05:36:56.124Z,1007.90
2018-11-04T05:37:56.104Z,1007.89
2018-11-04T05:38:56.068Z,1007.92
2018-11-04T05:39:56.082Z,1007.93
2018-11-04T05:40:56.041Z,1007.91
2018-11-04T05:41:56.030Z,1007.91
2018-11-04T05:42:56.045Z,1007.89
2018-11-04T05:43:56.020Z,1007.92
2018-11-04T05:44:56.007Z,1007.90
2018-11-04T05:45:56.015Z,1007.93
2018-11-04T05:46:55.980Z,1007.88
2018-11-04T05:47:55.996Z,1007.83
2018-11-04T05:48:55.952Z,1007.86
2018-11-04T05:49:55.947Z,1007.88
2018-11-04T05:50:55.941Z,1007.94
2018-11-04T05:51:55.921Z,1007.94
2018-11-04T05:52:55.942Z,1007.93
2018-11-04T05:53:55.939Z,1007.87
2018-11-04T05:54:55.896Z,1007.89
2018-11-04T05:55:55.877Z,1007.91
2018-11-04T05:56:55.892Z,1007.88
2018-11-04T05:57:55.878Z,1007.94
2018-11-04T05:58:55.843Z,1007.96
2018-11-04T05:59:55.838Z,1007.97
2018-11-04T06:00:55.829Z,1008.01
2018-11-04T06:01:55.858Z,1007.96
2018-11-04T06:02:55.826Z,1007.94
2018-11-04T06:03:55.816Z,1007.91
2018-11-04T06:04:55.790Z,1007.98
2018-11-04T06:05:55.768Z,1007.95
2018-11-04T06:06:55.767Z,1008.00
2018-11-04T06:07:55.767Z,1007.94
2018-11-04T06:08:55.734Z,1007.95
2018-11-04T06:09:55.735Z,1007.99
2018-11-04T06:10:55.727Z,1007.99
2018-11-04T06:11:55.712Z,1007.96
2018-11-04T06:12:56.147Z,1008.01
2018-11-04T06:13:55.693Z,1008.02
2018-11-04T06:14:55.671Z,1007.99
2018-11-04T06:15:55.664Z,1008.02
2018-11-04T06:16:55.647Z,1008.08
2018-11-04T06:17:55.648Z,1008.09
2018-11-04T06:18:55.646Z,1008.07
2018-11-04T06:19:55.661Z,1008.10
2018-11-04T06:20:55.629Z,1008.06
2018-11-04T06:21:55.600Z,1008.09
2018-11-04T06:22:55.594Z,1008.10
2018-11-04T06:23:55.608Z,1008.07
2018-11-04T06:24:55.566Z,1008.15
2018-11-04T06:25:55.557Z,1008.17
2018-11-04T06:26:55.536Z,1008.10
2018-11-04T06:27:55.531Z,1008.11
2018-11-04T06:28:55.546Z,1008.11
2018-11-04T06:29:55.512Z,1008.10
2018-11-04T06:30:55.497Z,1008.07
2018-11-04T06:31:55.519Z,1008.09
2018-11-04T06:32:55.507Z,1008.12
2018-11-04T06:33:55.483Z,1008.10
2018-11-04T06:34:55.453Z,1008.11
2018-11-04T06:35:55.452Z,1008.07
2018-11-04T06:36:55.436Z,1008.11
2018-11-04T06:37:55.421Z,1008.12
2018-11-04T06:38:55.433Z,1008.12
2018-11-04T06:39:55.418Z,1008.05
2018-11-04T06:40:55.408Z,1008.11
2018-11-04T06:41:55.375Z,1008.10
2018-11-04T06:42:55.368Z,1008.09
2018-11-04T06:43:55.381Z,1008.09
2018-11-04T06:44:55.340Z,1008.10
2018-11-04T06:45:55.327Z,1008.09
2018-11-04T06:46:55.364Z,1008.12
2018-11-04T06:47:55.312Z,1008.07
2018-11-04T06:48:55.321Z,1008.05
2018-11-04T06:49:55.289Z,1008.04
2018-11-04T06:50:55.279Z,1008.03
2018-11-04T06:51:55.263Z,1008.07
2018-11-04T06:52:55.258Z,1008.05
2018-11-04T06:53:55.270Z,1008.01
2018-11-04T06:54:55.241Z,1008.04
2018-11-04T06:55:55.255Z,1008.07
2018-11-04T06:56:55.227Z,1008.06
2018-11-04T06:57:55.194Z,1008.05
2018-11-04T06:58:55.193Z,1008.03
2018-11-04T06:59:55.260Z,1008.07
2018-11-04T07:00:55.187Z,1008.06
2018-11-04T07:01:55.177Z,1008.08
2018-11-04T07:02:55.144Z,1008.00
2018-11-04T07:03:55.136Z,1008.06
2018-11-04T07:04:55.144Z,1008.01
2018-11-04T07:05:55.109Z,1008.05
2018-11-04T07:06:55.128Z,1008.03
2018-11-04T07:07:55.093Z,1008.05
2018-11-04T07:08:55.119Z,1007.99
2018-11-04T07:09:55.070Z,1008.01
2018-11-04T07:10:55.060Z,1007.98
2018-11-04T07:11:55.063Z,1007.97
2018-11-04T07:12:55.036Z,1007.96
2018-11-04T07:13:55.026Z,1007.91
2018-11-04T07:14:55.025Z,1007.96
2018-11-04T07:15:55.001Z,1007.96
2018-11-04T07:16:55.033Z,1007.93
2018-11-04T07:17:54.981Z,1007.95
2018-11-04T07:18:54.987Z,1008.00
2018-11-04T07:19:55.031Z,1007.90
2018-11-04T07:20:54.950Z,1008.00
2018-11-04T07:21:54.992Z,1007.99
2018-11-04T07:22:54.959Z,1007.96
2018-11-04T07:23:54.913Z,1007.98
2018-11-04T07:24:54.920Z,1007.92
2018-11-04T07:25:54.899Z,1007.95
2018-11-04T07:26:54.927Z,1007.94
2018-11-04T07:27:54.870Z,1007.99
2018-11-04T07:28:54.872Z,1007.96
2018-11-04T07:29:54.845Z,1008.03
2018-11-04T07:30:54.870Z,1008.00
2018-11-04T07:31:54.894Z,1008.01
2018-11-04T07:32:54.858Z,1008.02
2018-11-04T07:33:54.802Z,1008.03
2018-11-04T07:34:54.793Z,1008.02
2018-11-04T07:35:54.782Z,1008.01
2018-11-04T07:36:54.769Z,1008.02
2018-11-04T07:37:54.802Z,1008.04
2018-11-04T07:38:54.746Z,1008.03
2018-11-04T07:39:54.745Z,1008.04
2018-11-04T07:40:54.748Z,1008.01
2018-11-04T07:41:54.719Z,1008.04
2018-11-04T07:42:54.711Z,1007.91
2018-11-04T07:43:54.689Z,1007.97
2018-11-04T07:44:54.680Z,1007.97
2018-11-04T07:45:54.689Z,1007.98
2018-11-04T07:46:54.682Z,1008.01
2018-11-04T07:47:54.646Z,1008.00
2018-11-04T07:48:54.675Z,1008.01
2018-11-04T07:49:54.643Z,1008.00
2018-11-04T07:50:54.663Z,1008.11
2018-11-04T07:51:54.617Z,1008.03
2018-11-04T07:52:54.597Z,1007.99
2018-11-04T07:53:54.581Z,1008.09
2018-11-04T07:54:54.579Z,1008.07
2018-11-04T07:55:54.584Z,1007.99
2018-11-04T07:56:54.610Z,1008.07
2018-11-04T07:57:54.561Z,1008.05
2018-11-04T07:58:54.544Z,1007.99
2018-11-04T07:59:54.521Z,1007.97
2018-11-04T08:00:54.572Z,1008.02
2018-11-04T08:01:54.516Z,1008.02
2018-11-04T08:02:54.481Z,1008.02
2018-11-04T08:03:54.495Z,1008.03
2018-11-04T08:04:54.485Z,1008.07
2018-11-04T08:05:54.454Z,1008.08
2018-11-04T08:06:54.473Z,1008.07
2018-11-04T08:07:54.434Z,1008.03
2018-11-04T08:08:54.419Z,1008.00
2018-11-04T08:09:54.433Z,1007.94
2018-11-04T08:10:54.409Z,1007.97
2018-11-04T08:11:54.434Z,1007.93
2018-11-04T08:12:54.375Z,1007.89
2018-11-04T08:13:54.369Z,1007.90
2018-11-04T08:14:54.362Z,1007.89
2018-11-04T08:15:54.341Z,1007.82
2018-11-04T08:16:54.371Z,1007.83
2018-11-04T08:17:54.315Z,1007.84
2018-11-04T08:18:54.309Z,1007.85
2018-11-04T08:19:54.297Z,1007.83
2018-11-04T08:20:54.292Z,1007.86
2018-11-04T08:21:54.297Z,1007.83
2018-11-04T08:22:54.263Z,1007.86
2018-11-04T08:23:54.255Z,1007.88
2018-11-04T08:24:54.269Z,1007.81
2018-11-04T08:25:54.229Z,1007.82
2018-11-04T08:26:54.231Z,1007.84
2018-11-04T08:27:54.422Z,1007.81
2018-11-04T08:28:54.195Z,1007.83
2018-11-04T08:29:54.226Z,1007.82
2018-11-04T08:30:54.209Z,1007.77
2018-11-04T08:31:54.165Z,1007.81
2018-11-04T08:32:54.160Z,1007.84
2018-11-04T08:33:54.154Z,1007.87
2018-11-04T08:34:54.151Z,1007.84
2018-11-04T08:35:54.130Z,1007.84
2018-11-04T08:36:54.107Z,1007.81
2018-11-04T08:37:54.106Z,1007.80
2018-11-04T08:38:54.121Z,1007.80
2018-11-04T08:39:54.217Z,1007.77
2018-11-04T08:40:54.064Z,1007.75
2018-11-04T08:41:54.053Z,1007.77
2018-11-04T08:42:54.040Z,1007.74
2018-11-04T08:43:54.029Z,1007.67
2018-11-04T08:44:54.064Z,1007.69
2018-11-04T08:45:54.105Z,1007.62
2018-11-04T08:46:53.995Z,1007.66
2018-11-04T08:47:54.002Z,1007.66
2018-11-04T08:48:53.997Z,1007.66
2018-11-04T08:49:53.991Z,1007.68
2018-11-04T08:50:53.974Z,1007.66
2018-11-04T08:51:53.974Z,1007.64
2018-11-04T08:52:53.939Z,1007.68
2018-11-04T08:53:53.977Z,1007.64
2018-11-04T08:54:53.926Z,1007.63
2018-11-04T08:55:53.918Z,1007.66
2018-11-04T08:56:53.922Z,1007.65
2018-11-04T08:57:53.892Z,1007.64
2018-11-04T08:58:53.872Z,1007.63
2018-11-04T08:59:53.911Z,1007.58
2018-11-04T09:00:53.880Z,1007.60
2018-11-04T09:01:53.837Z,1007.56
2018-11-04T09:02:53.827Z,1007.57
2018-11-04T09:03:53.820Z,1007.63
2018-11-04T09:04:53.817Z,1007.54
2018-11-04T09:05:53.792Z,1007.56
2018-11-04T09:06:53.805Z,1007.55
2018-11-04T09:07:53.793Z,1007.59
2018-11-04T09:08:53.795Z,1007.54
2018-11-04T09:09:53.768Z,1007.57
2018-11-04T09:10:53.744Z,1007.54
2018-11-04T09:11:53.725Z,1007.51
2018-11-04T09:12:53.720Z,1007.60
2018-11-04T09:13:53.721Z,1007.56
2018-11-04T09:14:53.691Z,1007.52
2018-11-04T09:15:53.681Z,1007.49
2018-11-04T09:16:53.673Z,1007.50
2018-11-04T09:17:53.663Z,1007.46
2018-11-04T09:18:53.691Z,1007.47
2018-11-04T09:19:53.645Z,1007.48
2018-11-04T09:20:53.624Z,1007.41
2018-11-04T09:21:53.939Z,1007.38
2018-11-04T09:22:53.645Z,1007.43
2018-11-04T09:23:53.608Z,1007.41
2018-11-04T09:24:53.611Z,1007.35
2018-11-04T09:25:53.572Z,1007.31
2018-11-04T09:26:53.601Z,1007.35
2018-11-04T09:27:53.607Z,1007.34
2018-11-04T09:28:54.633Z,1007.33
2018-11-04T09:30:09.340Z,1007.34
2018-11-04T09:30:53.631Z,1007.32
2018-11-04T09:31:53.750Z,1007.32
2018-11-04T09:32:53.493Z,1007.31
2018-11-04T09:33:54.276Z,1007.30
2018-11-04T09:36:11.787Z,1007.29
2018-11-04T09:37:09.744Z,1007.22
2018-11-04T09:38:09.682Z,1007.30
2018-11-04T09:39:09.773Z,1007.27
2018-11-04T09:41:48.512Z,1007.37
2018-11-04T09:42:56.138Z,1007.28
2018-11-04T09:43:47.898Z,1007.28
2018-11-04T09:44:47.910Z,1007.30
2018-11-04T09:45:47.881Z,1007.30
2018-11-04T09:46:47.865Z,1007.33
2018-11-04T09:47:47.859Z,1007.32
2018-11-04T09:48:47.845Z,1007.31
2018-11-04T09:49:47.870Z,1007.34
2018-11-04T09:50:47.826Z,1007.34
2018-11-04T09:51:47.818Z,1007.30
2018-11-04T09:52:47.800Z,1007.29
2018-11-04T09:53:47.790Z,1007.25
2018-11-04T09:54:47.809Z,1007.24
2018-11-04T09:55:47.788Z,1007.25
2018-11-04T09:56:47.784Z,1007.30
2018-11-04T09:57:47.751Z,1007.26
2018-11-04T09:58:47.736Z,1007.24
2018-11-04T09:59:47.767Z,1007.21
2018-11-04T10:00:47.738Z,1007.25
2018-11-04T10:01:47.711Z,1007.18
2018-11-04T10:02:47.694Z,1007.17
2018-11-04T10:03:47.692Z,1007.21
2018-11-04T10:04:47.688Z,1007.21
2018-11-04T10:05:47.677Z,1007.18
2018-11-04T10:06:47.650Z,1007.20
2018-11-04T10:07:47.641Z,1007.22
2018-11-04T10:08:47.629Z,1007.12
2018-11-04T10:09:47.624Z,1007.11
2018-11-04T10:10:47.630Z,1007.11
2018-11-04T10:11:47.601Z,1007.09
2018-11-04T10:12:47.584Z,1007.11
2018-11-04T10:13:47.577Z,1007.04
2018-11-04T10:14:47.572Z,1006.98
2018-11-04T10:15:47.625Z,1006.94
2018-11-04T10:16:47.541Z,1006.90
2018-11-04T10:17:47.533Z,1006.93
2018-11-04T10:18:47.557Z,1006.94
2018-11-04T10:19:47.901Z,1006.99
2018-11-04T10:20:47.862Z,1006.95
2018-11-04T10:21:47.484Z,1006.93
2018-11-04T10:22:47.471Z,1006.88
2018-11-04T10:23:47.462Z,1006.86
2018-11-04T10:24:47.449Z,1006.90
2018-11-04T10:25:47.453Z,1006.84
2018-11-04T10:26:47.427Z,1006.82
2018-11-04T10:27:47.416Z,1006.85
2018-11-04T10:28:47.416Z,1006.85
2018-11-04T10:29:47.431Z,1006.88
2018-11-04T10:30:47.439Z,1006.81
2018-11-04T10:31:47.375Z,1006.84
2018-11-04T10:32:47.366Z,1006.87
2018-11-04T10:33:47.350Z,1006.83
2018-11-04T10:34:47.351Z,1006.82
2018-11-04T10:35:47.379Z,1006.81
2018-11-04T10:36:47.319Z,1006.75
2018-11-04T10:37:47.315Z,1006.69
2018-11-04T10:38:47.307Z,1006.65
2018-11-04T10:39:47.286Z,1006.60
2018-11-04T10:40:47.335Z,1006.66
2018-11-04T10:41:47.273Z,1006.54
2018-11-04T10:42:47.254Z,1006.56
2018-11-04T10:43:47.247Z,1006.48
2018-11-04T10:44:47.247Z,1006.55
2018-11-04T10:45:47.259Z,1006.54
2018-11-04T10:46:47.218Z,1006.51
2018-11-04T10:47:47.209Z,1006.48
2018-11-04T10:48:47.186Z,1006.42
2018-11-04T10:49:47.217Z,1006.43
2018-11-04T10:50:47.173Z,1006.39
2018-11-04T10:51:47.212Z,1006.44
2018-11-04T10:52:47.143Z,1006.43
2018-11-04T10:53:47.149Z,1006.35
2018-11-04T10:54:47.124Z,1006.38
2018-11-04T10:55:47.276Z,1006.43
2018-11-04T10:56:47.114Z,1006.41
2018-11-04T10:57:47.089Z,1006.42
2018-11-04T10:58:47.081Z,1006.43
2018-11-04T10:59:47.069Z,1006.47
2018-11-04T11:00:47.098Z,1006.37
2018-11-04T11:01:47.051Z,1006.46
2018-11-04T11:02:47.034Z,1006.44
2018-11-04T11:03:47.025Z,1006.45
2018-11-04T11:04:47.074Z,1006.48
2018-11-04T11:05:47.026Z,1006.39
2018-11-04T11:06:46.995Z,1006.34
2018-11-04T11:07:47.001Z,1006.40
2018-11-04T11:08:46.974Z,1006.38
2018-11-04T11:09:46.958Z,1006.35
2018-11-04T11:10:46.999Z,1006.28
2018-11-04T11:11:46.955Z,1006.32
2018-11-04T11:12:46.939Z,1006.34
2018-11-04T11:13:46.936Z,1006.36
2018-11-04T11:14:46.905Z,1006.34
2018-11-04T11:15:46.887Z,1006.40
2018-11-04T11:16:46.904Z,1006.34
2018-11-04T11:17:46.868Z,1006.28
2018-11-04T11:18:46.865Z,1006.23
2018-11-04T11:19:46.888Z,1006.18
2018-11-04T11:20:46.841Z,1006.18
2018-11-04T11:21:46.847Z,1006.23
2018-11-04T11:22:46.938Z,1006.21
2018-11-04T11:23:46.800Z,1006.20
2018-11-04T11:24:46.799Z,1006.23
2018-11-04T11:25:46.783Z,1006.23
2018-11-04T11:26:46.786Z,1006.16
2018-11-04T11:27:46.757Z,1006.16
2018-11-04T11:28:46.755Z,1006.09
2018-11-04T11:29:46.738Z,1006.11
2018-11-04T11:30:46.744Z,1006.05
2018-11-04T11:31:46.757Z,1006.05
2018-11-04T11:32:46.705Z,1006.08
2018-11-04T11:33:46.699Z,1006.03
2018-11-04T11:34:46.696Z,1006.03
2018-11-04T11:35:46.672Z,1006.03
2018-11-04T11:36:46.678Z,1006.04
2018-11-04T11:37:46.728Z,1006.00
2018-11-04T11:38:46.639Z,1006.01
2018-11-04T11:39:46.640Z,1005.99
2018-11-04T11:40:46.616Z,1005.98
2018-11-04T11:41:46.625Z,1005.95
2018-11-04T11:42:46.598Z,1005.94
2018-11-04T11:43:46.599Z,1005.98
2018-11-04T11:44:46.662Z,1005.97
2018-11-04T11:45:46.562Z,1005.94
2018-11-04T11:46:46.577Z,1005.99
2018-11-04T11:47:46.538Z,1005.93
2018-11-04T11:48:46.548Z,1005.90
2018-11-04T11:49:46.519Z,1005.89
2018-11-04T11:50:46.508Z,1005.80
2018-11-04T11:51:46.534Z,1005.77
2018-11-04T11:52:46.489Z,1005.78
2018-11-04T11:53:46.482Z,1005.73
2018-11-04T11:54:46.477Z,1005.78
2018-11-04T11:55:46.454Z,1005.69
2018-11-04T11:56:46.452Z,1005.73
2018-11-04T11:57:46.474Z,1005.71
2018-11-04T11:58:46.427Z,1005.74
2018-11-04T11:59:46.414Z,1005.68
2018-11-04T12:00:46.424Z,1005.67
2018-11-04T12:01:46.394Z,1005.68
2018-11-04T12:02:46.403Z,1005.64
2018-11-04T12:03:46.367Z,1005.57
2018-11-04T12:04:46.359Z,1005.52
2018-11-04T12:05:46.348Z,1005.61
2018-11-04T12:06:46.336Z,1005.58
2018-11-04T12:07:46.360Z,1005.60
2018-11-04T12:08:46.346Z,1005.58